Time;durP1;ratioP1;P1;durP2;ratioP2;P2;SDS_P1;SDS_P2;PMS_P1;PMS_P2;Temp;Humidity;BMP_temperature;BMP_pressure;BME280_temperature;BME280_humidity;BME280_pressure;Samples;Min_cycle;Max_cycle;Signal;HPM_P1;HPM_P2
2022/12/28 00:00:49;;;;;;;268.00;156.30;;;;;;;;;;4371723;32;334304;-82
2022/12/28 00:03:16;;;;;;;286.50;157.60;;;;;;;;;;4361960;32;320366;-82
2022/12/28 00:05:44;;;;;;;276.90;154.27;;;;;;;;;;4371976;32;320365;-83
2022/12/28 00:08:11;;;;;;;254.47;149.47;;;;;;;;;;4362331;32;320047;-83
2022/12/28 00:10:37;;;;;;;249.87;151.00;;;;;;;;;;4372105;32;320825;-83
2022/12/28 00:13:04;;;;;;;270.00;158.33;;;;;;;;;;4370798;32;320439;-83
2022/12/28 00:15:31;;;;;;;254.13;153.33;;;;;;;;;;4360044;32;352935;-83
2022/12/28 00:17:58;;;;;;;266.93;155.63;;;;;;;;;;4371640;32;320806;-83
2022/12/28 00:20:24;;;;;;;260.03;153.30;;;;;;;;;;4362118;32;320204;-83
2022/12/28 00:22:52;;;;;;;257.30;151.73;;;;;;;;;;4370718;32;320307;-82
2022/12/28 00:25:19;;;;;;;254.13;148.00;;;;;;;;;;4360923;32;320545;-82
2022/12/28 00:27:46;;;;;;;258.47;149.77;;;;;;;;;;4369386;32;357815;-82
2022/12/28 00:30:13;;;;;;;251.50;148.77;;;;;;;;;;4362198;32;320390;-83
2022/12/28 00:32:40;;;;;;;241.73;144.90;;;;;;;;;;4369924;32;345449;-83
2022/12/28 00:35:07;;;;;;;282.13;153.87;;;;;;;;;;4372013;32;320313;-83
2022/12/28 00:37:34;;;;;;;264.23;149.30;;;;;;;;;;4357968;32;419112;-82
2022/12/28 00:40:02;;;;;;;256.57;146.83;;;;;;;;;;4371620;32;331863;-82
2022/12/28 00:42:29;;;;;;;248.00;142.67;;;;;;;;;;4360746;32;320211;-82
2022/12/28 00:44:56;;;;;;;257.87;145.53;;;;;;;;;;4371893;32;320452;-82
2022/12/28 00:47:23;;;;;;;257.27;143.13;;;;;;;;;;4363202;32;320123;-83
2022/12/28 00:49:49;;;;;;;250.63;142.50;;;;;;;;;;4374224;32;320027;-83
2022/12/28 00:52:16;;;;;;;258.67;141.97;;;;;;;;;;4363582;32;320614;-84
2022/12/28 00:54:43;;;;;;;249.40;142.77;;;;;;;;;;4374443;32;320528;-83
2022/12/28 00:57:11;;;;;;;253.67;143.50;;;;;;;;;;4364754;32;319633;-83
2022/12/28 00:59:38;;;;;;;250.57;141.03;;;;;;;;;;4374489;32;320233;-83
2022/12/28 01:02:04;;;;;;;245.57;142.87;;;;;;;;;;4373542;32;320445;-83
2022/12/28 01:04:31;;;;;;;240.23;140.57;;;;;;;;;;4363486;32;320380;-84
2022/12/28 01:06:58;;;;;;;254.10;142.03;;;;;;;;;;4374559;32;320393;-83
2022/12/28 01:09:24;;;;;;;233.93;137.77;;;;;;;;;;4364298;32;320450;-83
2022/12/28 01:11:51;;;;;;;245.80;140.37;;;;;;;;;;4373255;32;320268;-83
2022/12/28 01:14:19;;;;;;;246.70;140.20;;;;;;;;;;4363027;32;320188;-83
2022/12/28 01:16:46;;;;;;;235.47;140.20;;;;;;;;;;4373199;32;319717;-83
2022/12/28 01:19:18;;;;;;;247.97;141.47;;;;;;;;;;4363855;32;325867;-84
2022/12/28 01:21:48;;;;;;;258.63;138.63;;;;;;;;;;4373173;32;320232;-83
2022/12/28 01:24:15;;;;;;;247.07;137.83;;;;;;;;;;4364194;32;320309;-84
2022/12/28 01:26:42;;;;;;;250.00;141.23;;;;;;;;;;4374223;32;319687;-83
2022/12/28 01:29:09;;;;;;;277.43;146.30;;;;;;;;;;4364039;32;320506;-84
2022/12/28 01:31:37;;;;;;;303.97;152.43;;;;;;;;;;4374062;32;320424;-83
2022/12/28 01:34:04;;;;;;;306.43;155.63;;;;;;;;;;4373644;32;320392;-83
2022/12/28 01:36:33;;;;;;;297.17;150.23;;;;;;;;;;4364170;32;320247;-83
2022/12/28 01:39:02;;;;;;;267.17;143.80;;;;;;;;;;4371519;32;362543;-83
2022/12/28 01:41:30;;;;;;;248.63;139.60;;;;;;;;;;4364024;32;325175;-83
2022/12/28 01:44:37;;;;;;;240.73;135.60;;;;;;;;;;4373106;32;320320;-83
2022/12/28 01:47:08;;;;;;;255.80;136.20;;;;;;;;;;4371084;32;420945;-83
2022/12/28 01:49:39;;;;;;;231.13;136.53;;;;;;;;;;4361037;32;420576;-83
2022/12/28 01:52:08;;;;;;;244.73;143.70;;;;;;;;;;4374118;32;320219;-82
2022/12/28 01:54:38;;;;;;;249.00;147.77;;;;;;;;;;4360723;32;419986;-82
2022/12/28 01:57:04;;;;;;;239.20;141.47;;;;;;;;;;4373381;32;320420;-82
2022/12/28 01:59:35;;;;;;;254.67;147.60;;;;;;;;;;4361818;32;320478;-82
2022/12/28 02:02:02;;;;;;;236.47;143.73;;;;;;;;;;4373127;32;348409;-82
2022/12/28 02:04:31;;;;;;;241.37;145.20;;;;;;;;;;4363930;32;320320;-82
2022/12/28 02:06:57;;;;;;;224.23;137.73;;;;;;;;;;4372889;32;319944;-82
2022/12/28 02:09:29;;;;;;;223.73;134.17;;;;;;;;;;4362467;32;320459;-82
2022/12/28 02:11:57;;;;;;;210.13;128.83;;;;;;;;;;4372638;32;319700;-82
2022/12/28 02:14:24;;;;;;;225.67;133.73;;;;;;;;;;4361543;32;344132;-81
2022/12/28 02:16:53;;;;;;;216.60;128.50;;;;;;;;;;4373629;32;320095;-81
2022/12/28 02:19:32;;;;;;;218.40;131.10;;;;;;;;;;4361900;32;320400;-81
2022/12/28 02:22:20;;;;;;;224.43;129.57;;;;;;;;;;4372385;32;319554;-82
2022/12/28 02:25:03;;;;;;;207.80;129.60;;;;;;;;;;4359370;32;420251;-82
2022/12/28 02:27:40;;;;;;;219.93;130.37;;;;;;;;;;4363303;32;320272;-81
2022/12/28 02:30:09;;;;;;;211.30;131.10;;;;;;;;;;4373457;32;320700;-81
2022/12/28 02:32:55;;;;;;;218.53;127.33;;;;;;;;;;4360281;32;420270;-82
2022/12/28 02:35:32;;;;;;;216.53;127.40;;;;;;;;;;4363104;32;320709;-82
2022/12/28 02:38:03;;;;;;;212.30;122.53;;;;;;;;;;4372945;32;319844;-82
2022/12/28 02:40:35;;;;;;;212.93;123.07;;;;;;;;;;4363212;32;320312;-81
2022/12/28 02:43:03;;;;;;;209.43;126.07;;;;;;;;;;4372972;32;319668;-82
2022/12/28 02:51:31;;;;;;;208.03;122.10;;;;;;;;;;4373096;32;320305;-82
2022/12/28 02:57:21;;;;;;;211.93;119.67;;;;;;;;;;4360248;32;390721;-82
2022/12/28 03:00:02;;;;;;;193.73;116.70;;;;;;;;;;4372298;32;320190;-82
2022/12/28 03:02:44;;;;;;;192.70;117.57;;;;;;;;;;4362772;32;320326;-82
2022/12/28 03:05:16;;;;;;;187.30;114.07;;;;;;;;;;4363006;32;320358;-80
2022/12/28 03:10:45;;;;;;;166.27;98.43;;;;;;;;;;4360662;32;391125;-81
2022/12/28 03:16:06;;;;;;;100.13;63.97;;;;;;;;;;4371227;32;318640;-81
2022/12/28 03:32:27;;;;;;;120.80;68.93;;;;;;;;;;4362829;32;319192;-82
2022/12/28 03:34:56;;;;;;;123.13;71.47;;;;;;;;;;4372490;32;319769;-82
2022/12/28 03:37:27;;;;;;;120.47;76.33;;;;;;;;;;4362576;32;319337;-82
2022/12/28 03:40:00;;;;;;;121.17;73.47;;;;;;;;;;4372583;32;319398;-82
2022/12/28 03:45:20;;;;;;;117.63;71.50;;;;;;;;;;4360450;32;350204;-82
2022/12/28 03:47:49;;;;;;;116.77;74.07;;;;;;;;;;4372326;32;319533;-82
2022/12/28 03:50:19;;;;;;;105.43;63.77;;;;;;;;;;4361653;32;319551;-82
2022/12/28 03:52:45;;;;;;;110.20;67.13;;;;;;;;;;4370961;32;319356;-81
2022/12/28 03:55:14;;;;;;;121.17;68.37;;;;;;;;;;4359061;32;353581;-83
2022/12/28 03:57:41;;;;;;;188.90;100.27;;;;;;;;;;4372576;32;319172;-81
2022/12/28 04:00:10;;;;;;;183.07;99.33;;;;;;;;;;4362463;32;320377;-84
2022/12/28 04:02:37;;;;;;;145.20;83.10;;;;;;;;;;4370820;32;319780;-83
2022/12/28 04:05:04;;;;;;;131.83;76.17;;;;;;;;;;4370940;32;318878;-83
2022/12/28 04:07:32;;;;;;;123.07;73.77;;;;;;;;;;4362103;32;319149;-83
2022/12/28 04:09:59;;;;;;;127.57;72.37;;;;;;;;;;4371515;32;342173;-82
2022/12/28 04:12:26;;;;;;;113.67;70.93;;;;;;;;;;4362264;32;319295;-82
2022/12/28 04:14:53;;;;;;;110.10;71.43;;;;;;;;;;4372196;32;319428;-83
2022/12/28 04:17:19;;;;;;;111.47;68.17;;;;;;;;;;4360842;32;319623;-82
2022/12/28 04:19:46;;;;;;;118.93;73.50;;;;;;;;;;4371222;32;319441;-82
2022/12/28 04:22:13;;;;;;;124.57;76.03;;;;;;;;;;4363195;32;318459;-83
2022/12/28 04:24:41;;;;;;;137.63;78.03;;;;;;;;;;4375027;32;319263;-83
2022/12/28 04:27:08;;;;;;;130.37;76.57;;;;;;;;;;4365174;32;319697;-84
2022/12/28 04:29:35;;;;;;;126.90;75.27;;;;;;;;;;4374706;32;319431;-83
2022/12/28 04:32:01;;;;;;;119.60;70.93;;;;;;;;;;4372875;32;319231;-83
2022/12/28 04:34:28;;;;;;;120.03;72.30;;;;;;;;;;4373459;32;319364;-83
2022/12/28 04:36:55;;;;;;;118.60;69.13;;;;;;;;;;4382887;32;319306;-83
2022/12/28 04:39:22;;;;;;;132.27;76.17;;;;;;;;;;4364740;32;319511;-83
2022/12/28 04:41:50;;;;;;;124.17;74.90;;;;;;;;;;4373664;32;318569;-82
2022/12/28 04:44:17;;;;;;;138.00;78.07;;;;;;;;;;4363629;32;319707;-83
2022/12/28 04:46:43;;;;;;;145.53;82.73;;;;;;;;;;4373775;32;319183;-82
2022/12/28 04:49:10;;;;;;;139.30;81.73;;;;;;;;;;4364702;32;319549;-83
2022/12/28 04:51:37;;;;;;;131.70;82.97;;;;;;;;;;4374933;32;319649;-83
2022/12/28 04:54:04;;;;;;;144.50;82.87;;;;;;;;;;4373622;32;319243;-83
2022/12/28 04:56:30;;;;;;;134.00;80.23;;;;;;;;;;4363453;32;319371;-83
2022/12/28 04:59:00;;;;;;;137.90;77.87;;;;;;;;;;4373197;32;323704;-82
2022/12/28 05:01:27;;;;;;;126.17;77.33;;;;;;;;;;4364851;32;319250;-82
2022/12/28 05:03:55;;;;;;;129.10;82.27;;;;;;;;;;4373192;32;319351;-82
2022/12/28 05:06:23;;;;;;;137.60;84.00;;;;;;;;;;4363588;32;319435;-82
2022/12/28 05:08:50;;;;;;;155.90;93.77;;;;;;;;;;4374285;32;318506;-82
2022/12/28 05:11:19;;;;;;;166.07;96.60;;;;;;;;;;4363477;32;319330;-82
2022/12/28 05:13:46;;;;;;;168.43;94.07;;;;;;;;;;4373114;32;319421;-82
2022/12/28 05:16:18;;;;;;;160.40;95.77;;;;;;;;;;4364011;32;319274;-83
2022/12/28 05:18:45;;;;;;;155.50;92.67;;;;;;;;;;4372622;32;330091;-82
2022/12/28 05:21:14;;;;;;;157.13;94.10;;;;;;;;;;4364384;32;319133;-82
2022/12/28 05:23:41;;;;;;;153.23;90.13;;;;;;;;;;4373878;32;319279;-81
2022/12/28 05:26:12;;;;;;;150.80;89.10;;;;;;;;;;4362126;32;319160;-82
2022/12/28 05:28:39;;;;;;;148.83;88.50;;;;;;;;;;4373118;32;319629;-82
2022/12/28 05:31:07;;;;;;;143.13;86.20;;;;;;;;;;4372739;32;319306;-83
2022/12/28 05:33:36;;;;;;;142.13;85.20;;;;;;;;;;4360284;32;418033;-83
2022/12/28 05:36:04;;;;;;;145.03;89.43;;;;;;;;;;4374116;32;319342;-83
2022/12/28 05:38:31;;;;;;;147.17;90.70;;;;;;;;;;4364075;32;319202;-82
2022/12/28 05:41:04;;;;;;;151.97;87.33;;;;;;;;;;4374013;32;318727;-82
2022/12/28 05:43:31;;;;;;;135.00;82.27;;;;;;;;;;4363983;32;318555;-82
2022/12/28 05:46:04;;;;;;;149.23;82.67;;;;;;;;;;4374024;32;318481;-82
2022/12/28 05:48:32;;;;;;;143.70;83.53;;;;;;;;;;4362698;32;320137;-82
2022/12/28 05:51:02;;;;;;;143.87;82.80;;;;;;;;;;4387435;32;318534;-82
2022/12/28 05:53:30;;;;;;;130.77;80.10;;;;;;;;;;4363990;32;319172;-82
2022/12/28 05:56:04;;;;;;;147.37;87.97;;;;;;;;;;4372880;32;319329;-82
2022/12/28 05:58:30;;;;;;;158.10;89.40;;;;;;;;;;4361422;32;353981;-82
2022/12/28 06:01:05;;;;;;;158.80;97.33;;;;;;;;;;4373798;32;318703;-83
2022/12/28 06:03:32;;;;;;;131.90;81.87;;;;;;;;;;4363376;32;319196;-83
2022/12/28 06:06:05;;;;;;;116.77;75.40;;;;;;;;;;4373928;32;319280;-83
2022/12/28 06:08:32;;;;;;;134.63;80.30;;;;;;;;;;4363691;32;319303;-84
2022/12/28 06:11:03;;;;;;;147.20;86.37;;;;;;;;;;4373039;32;319065;-82
2022/12/28 06:13:30;;;;;;;162.57;89.80;;;;;;;;;;4363551;32;319478;-82
2022/12/28 06:15:57;;;;;;;144.10;87.13;;;;;;;;;;4373607;32;319319;-83
2022/12/28 06:18:28;;;;;;;136.53;82.97;;;;;;;;;;4363075;32;319442;-83
2022/12/28 06:20:54;;;;;;;126.73;79.80;;;;;;;;;;4372598;32;321235;-83
2022/12/28 06:23:22;;;;;;;132.27;84.27;;;;;;;;;;4363388;32;319473;-83
2022/12/28 06:25:49;;;;;;;132.73;82.73;;;;;;;;;;4373420;32;318669;-83
2022/12/28 06:28:16;;;;;;;133.00;86.30;;;;;;;;;;4363212;32;318432;-83
2022/12/28 06:30:43;;;;;;;144.60;85.00;;;;;;;;;;4372415;32;320031;-83
2022/12/28 06:33:10;;;;;;;136.40;85.20;;;;;;;;;;4363251;32;319219;-83
2022/12/28 06:35:40;;;;;;;137.00;83.67;;;;;;;;;;4372380;32;319366;-83
2022/12/28 06:38:07;;;;;;;191.33;112.37;;;;;;;;;;4373370;32;318585;-83
2022/12/28 06:40:35;;;;;;;211.70;123.30;;;;;;;;;;4359273;32;419234;-83
2022/12/28 06:43:02;;;;;;;227.07;135.77;;;;;;;;;;4372767;32;320458;-84
2022/12/28 06:45:28;;;;;;;223.20;140.77;;;;;;;;;;4361986;32;320424;-84
2022/12/28 06:47:55;;;;;;;212.77;135.30;;;;;;;;;;4372999;32;319671;-83
2022/12/28 06:50:22;;;;;;;203.37;125.67;;;;;;;;;;4363155;32;320043;-82
2022/12/28 06:52:49;;;;;;;210.83;130.80;;;;;;;;;;4371543;32;319725;-82
2022/12/28 06:55:15;;;;;;;204.90;129.70;;;;;;;;;;4361778;32;320396;-82
2022/12/28 06:57:44;;;;;;;213.27;134.00;;;;;;;;;;4372740;32;320796;-82
2022/12/28 07:00:12;;;;;;;237.83;147.03;;;;;;;;;;4359608;32;350504;-81
2022/12/28 07:02:39;;;;;;;282.43;164.00;;;;;;;;;;4371572;32;320325;-82
2022/12/28 07:05:05;;;;;;;279.87;168.27;;;;;;;;;;4371542;32;320408;-82
2022/12/28 07:07:32;;;;;;;276.77;164.00;;;;;;;;;;4362998;32;320395;-82
2022/12/28 07:09:59;;;;;;;251.50;162.30;;;;;;;;;;4372947;32;320471;-81
2022/12/28 07:12:26;;;;;;;253.83;167.20;;;;;;;;;;4361898;32;320481;-82
2022/12/28 07:14:54;;;;;;;246.47;157.40;;;;;;;;;;4372043;32;319936;-82
2022/12/28 07:17:20;;;;;;;243.57;147.10;;;;;;;;;;4361543;32;320864;-82
2022/12/28 07:19:47;;;;;;;240.17;150.20;;;;;;;;;;4372909;32;320381;-83
2022/12/28 07:22:14;;;;;;;246.90;151.83;;;;;;;;;;4362820;32;320905;-82
2022/12/28 07:24:41;;;;;;;230.23;147.77;;;;;;;;;;4371305;32;320517;-83
2022/12/28 07:27:08;;;;;;;237.97;149.37;;;;;;;;;;4370790;32;320448;-84
2022/12/28 07:29:35;;;;;;;217.43;134.77;;;;;;;;;;4371057;32;320325;-83
2022/12/28 07:32:03;;;;;;;196.53;124.53;;;;;;;;;;4371460;32;320419;-83
2022/12/28 07:34:30;;;;;;;199.67;128.60;;;;;;;;;;4377866;32;320314;-83
2022/12/28 07:36:56;;;;;;;208.30;132.83;;;;;;;;;;4371351;32;320668;-83
2022/12/28 07:39:23;;;;;;;218.20;135.67;;;;;;;;;;4362249;32;320277;-83
2022/12/28 07:41:50;;;;;;;208.77;133.67;;;;;;;;;;4372465;32;320409;-83
2022/12/28 07:44:17;;;;;;;222.57;140.67;;;;;;;;;;4361105;32;320247;-83
2022/12/28 07:46:43;;;;;;;204.43;133.23;;;;;;;;;;4369987;32;350975;-82
2022/12/28 07:49:12;;;;;;;211.43;134.33;;;;;;;;;;4362019;32;320303;-82
2022/12/28 07:51:39;;;;;;;226.90;140.73;;;;;;;;;;4372384;32;319651;-83
2022/12/28 07:54:06;;;;;;;297.80;190.17;;;;;;;;;;4370824;32;320490;-83
2022/12/28 07:56:33;;;;;;;233.37;147.83;;;;;;;;;;4358766;32;419480;-83
2022/12/28 07:59:02;;;;;;;225.93;142.03;;;;;;;;;;4371867;32;320869;-82
2022/12/28 08:01:31;;;;;;;236.43;149.97;;;;;;;;;;4360256;32;347311;-82
2022/12/28 08:03:59;;;;;;;230.23;149.60;;;;;;;;;;4371815;32;320269;-82
2022/12/28 08:06:29;;;;;;;255.23;158.83;;;;;;;;;;4362285;32;320231;-83
2022/12/28 08:08:59;;;;;;;251.07;146.30;;;;;;;;;;4371689;32;320526;-81
2022/12/28 08:11:28;;;;;;;170.30;110.67;;;;;;;;;;4361950;32;321183;-82
2022/12/28 08:13:56;;;;;;;179.77;115.93;;;;;;;;;;4371658;32;319703;-81
2022/12/28 08:16:25;;;;;;;216.67;137.27;;;;;;;;;;4361205;32;320764;-83
2022/12/28 08:18:52;;;;;;;211.43;135.20;;;;;;;;;;4371523;32;320424;-82
2022/12/28 08:21:21;;;;;;;219.90;136.30;;;;;;;;;;4360869;32;320790;-81
2022/12/28 08:23:51;;;;;;;146.13;95.47;;;;;;;;;;4371827;32;320415;-82
2022/12/28 08:26:19;;;;;;;352.20;201.80;;;;;;;;;;4360804;32;326057;-82
2022/12/28 08:28:47;;;;;;;262.57;161.93;;;;;;;;;;4371856;32;320540;-82
2022/12/28 08:31:20;;;;;;;245.27;143.70;;;;;;;;;;4362026;32;320390;-82
2022/12/28 08:33:47;;;;;;;268.30;165.57;;;;;;;;;;4371750;32;320480;-82
2022/12/28 08:36:17;;;;;;;473.83;241.13;;;;;;;;;;4361016;32;320554;-84
2022/12/28 08:38:45;;;;;;;218.37;136.97;;;;;;;;;;4371066;32;339188;-82
2022/12/28 08:41:15;;;;;;;166.43;107.67;;;;;;;;;;4359411;32;320546;-81
2022/12/28 08:43:43;;;;;;;156.27;100.30;;;;;;;;;;4371251;32;320725;-82
2022/12/28 08:46:12;;;;;;;169.13;111.80;;;;;;;;;;4359611;32;395298;-84
2022/12/28 08:48:40;;;;;;;131.43;90.07;;;;;;;;;;4371689;32;320851;-84
2022/12/28 08:51:11;;;;;;;141.87;87.17;;;;;;;;;;4371845;32;318599;-83
2022/12/28 08:53:38;;;;;;;136.03;91.53;;;;;;;;;;4357888;32;418383;-84
2022/12/28 08:56:06;;;;;;;155.70;102.40;;;;;;;;;;4387811;32;318524;-84
2022/12/28 08:58:34;;;;;;;258.50;153.10;;;;;;;;;;4358856;32;419199;-84
2022/12/28 09:01:06;;;;;;;205.63;127.83;;;;;;;;;;4371872;32;319778;-84
2022/12/28 09:03:35;;;;;;;181.80;114.17;;;;;;;;;;4359402;32;400861;-83
2022/12/28 09:06:03;;;;;;;170.20;108.73;;;;;;;;;;4371827;32;319727;-84
2022/12/28 09:08:30;;;;;;;152.97;94.57;;;;;;;;;;4363152;32;319614;-84
2022/12/28 09:10:59;;;;;;;144.47;96.47;;;;;;;;;;4373496;32;319460;-84
2022/12/28 09:13:26;;;;;;;149.77;96.10;;;;;;;;;;4364512;32;319386;-84
2022/12/28 09:15:58;;;;;;;129.23;86.67;;;;;;;;;;4373915;32;318615;-83
2022/12/28 09:18:25;;;;;;;127.00;86.90;;;;;;;;;;4363257;32;319470;-84
2022/12/28 09:20:51;;;;;;;129.53;91.17;;;;;;;;;;4374441;32;319879;-84
2022/12/28 09:23:18;;;;;;;166.57;101.00;;;;;;;;;;4364595;32;319462;-84
2022/12/28 09:25:46;;;;;;;153.23;97.93;;;;;;;;;;4374361;32;319703;-83
2022/12/28 09:28:13;;;;;;;173.77;113.50;;;;;;;;;;4363450;32;318556;-84
2022/12/28 09:30:40;;;;;;;164.57;106.97;;;;;;;;;;4372379;32;342281;-83
2022/12/28 09:35:57;;;;;;;170.27;102.60;;;;;;;;;;4362406;32;390002;-83
2022/12/28 09:38:24;;;;;;;136.77;89.40;;;;;;;;;;4364181;32;320344;-84
2022/12/28 09:40:51;;;;;;;182.17;94.20;;;;;;;;;;4372855;32;319431;-83
2022/12/28 09:43:18;;;;;;;341.77;130.23;;;;;;;;;;4362850;32;319384;-82
2022/12/28 09:45:46;;;;;;;291.43;129.97;;;;;;;;;;4372902;32;320326;-82
2022/12/28 09:48:19;;;;;;;358.23;142.40;;;;;;;;;;4363758;32;322877;-84
2022/12/28 09:50:47;;;;;;;167.30;98.27;;;;;;;;;;4371256;32;319659;-83
2022/12/28 09:53:33;;;;;;;182.13;96.53;;;;;;;;;;4363884;32;319530;-85
2022/12/28 09:56:03;;;;;;;120.80;74.80;;;;;;;;;;4387721;32;319635;-84
2022/12/28 09:58:32;;;;;;;119.07;71.93;;;;;;;;;;4364759;32;319500;-84
2022/12/28 10:01:01;;;;;;;98.73;61.53;;;;;;;;;;4374183;32;319283;-83
2022/12/28 10:03:35;;;;;;;104.23;60.17;;;;;;;;;;4364037;32;318611;-83
2022/12/28 10:06:03;;;;;;;105.27;61.50;;;;;;;;;;4373960;32;319628;-82
2022/12/28 10:08:31;;;;;;;106.70;56.03;;;;;;;;;;4362075;32;338208;-83
2022/12/28 10:11:02;;;;;;;131.13;60.40;;;;;;;;;;4373678;32;319351;-82
2022/12/28 10:13:36;;;;;;;130.30;58.97;;;;;;;;;;4363561;32;319351;-85
2022/12/28 10:16:04;;;;;;;95.63;45.73;;;;;;;;;;4374204;32;319336;-84
2022/12/28 10:18:34;;;;;;;84.00;45.30;;;;;;;;;;4363500;32;318329;-84
2022/12/28 10:21:01;;;;;;;73.87;44.63;;;;;;;;;;4373319;32;318162;-85
2022/12/28 10:23:31;;;;;;;64.20;42.07;;;;;;;;;;4363697;32;317897;-83
2022/12/28 10:26:00;;;;;;;62.10;41.67;;;;;;;;;;4373608;32;317610;-83
2022/12/28 10:28:31;;;;;;;63.77;40.57;;;;;;;;;;4363783;32;318722;-83
2022/12/28 10:31:06;;;;;;;92.20;45.47;;;;;;;;;;4372591;32;318401;-84
2022/12/28 10:33:39;;;;;;;116.73;55.63;;;;;;;;;;4361171;32;417068;-83
2022/12/28 10:36:12;;;;;;;127.97;56.83;;;;;;;;;;4372500;32;319521;-83
2022/12/28 10:38:42;;;;;;;67.43;40.17;;;;;;;;;;4360946;32;418650;-85
2022/12/28 10:41:11;;;;;;;63.23;38.93;;;;;;;;;;4362883;32;318520;-83
2022/12/28 10:43:40;;;;;;;78.13;43.70;;;;;;;;;;4373071;32;318313;-82
2022/12/28 10:46:14;;;;;;;85.07;44.23;;;;;;;;;;4373173;32;318323;-82
2022/12/28 10:48:47;;;;;;;89.07;45.63;;;;;;;;;;4359878;32;417432;-82
2022/12/28 10:51:16;;;;;;;84.47;45.77;;;;;;;;;;4362138;32;318170;-82
2022/12/28 10:53:44;;;;;;;117.70;48.80;;;;;;;;;;4372804;32;317954;-85
2022/12/28 10:56:22;;;;;;;80.97;45.50;;;;;;;;;;4361802;32;319408;-83
2022/12/28 10:58:50;;;;;;;105.50;52.67;;;;;;;;;;4373574;32;317502;-82
2022/12/28 11:01:25;;;;;;;131.23;61.23;;;;;;;;;;4362294;32;319547;-82
2022/12/28 11:04:03;;;;;;;79.00;43.17;;;;;;;;;;4372059;32;318843;-82
2022/12/28 11:06:30;;;;;;;76.80;42.50;;;;;;;;;;4362511;32;318819;-82
2022/12/28 11:09:16;;;;;;;66.57;37.37;;;;;;;;;;4373223;32;318316;-82
2022/12/28 11:11:44;;;;;;;49.17;29.00;;;;;;;;;;4360939;32;418319;-83
2022/12/28 11:14:22;;;;;;;55.03;33.57;;;;;;;;;;4362229;32;318248;-83
2022/12/28 11:16:49;;;;;;;60.70;37.00;;;;;;;;;;4372284;32;318903;-83
2022/12/28 11:19:17;;;;;;;55.63;30.57;;;;;;;;;;4362287;32;336706;-82
2022/12/28 11:21:44;;;;;;;79.23;43.10;;;;;;;;;;4371991;32;317557;-83
2022/12/28 11:24:13;;;;;;;60.47;37.57;;;;;;;;;;4361709;32;317736;-83
2022/12/28 11:26:43;;;;;;;60.07;36.13;;;;;;;;;;4373030;32;318332;-82
2022/12/28 11:29:13;;;;;;;64.83;38.13;;;;;;;;;;4364061;32;318250;-84
2022/12/28 11:31:46;;;;;;;55.23;38.10;;;;;;;;;;4372464;32;318342;-83
2022/12/28 11:34:19;;;;;;;54.97;33.77;;;;;;;;;;4361452;32;338622;-81
2022/12/28 11:36:48;;;;;;;43.37;28.80;;;;;;;;;;4374294;32;318148;-84
2022/12/28 11:39:45;;;;;;;40.23;27.17;;;;;;;;;;4362005;32;318433;-84
2022/12/28 11:42:13;;;;;;;41.87;28.63;;;;;;;;;;4362536;32;319065;-84
2022/12/28 11:44:53;;;;;;;50.83;30.63;;;;;;;;;;4372293;32;319439;-84
2022/12/28 11:47:31;;;;;;;45.87;29.23;;;;;;;;;;4362779;32;319344;-83
2022/12/28 11:50:31;;;;;;;54.20;35.27;;;;;;;;;;4371269;32;319299;-84
2022/12/28 11:53:00;;;;;;;60.73;38.80;;;;;;;;;;4358228;32;419548;-84
2022/12/28 11:55:41;;;;;;;141.03;73.60;;;;;;;;;;4361001;32;334305;-84
2022/12/28 11:58:33;;;;;;;42.47;28.47;;;;;;;;;;4372243;32;320156;-85
2022/12/28 12:01:02;;;;;;;45.20;29.03;;;;;;;;;;4358314;32;419949;-83
2022/12/28 12:03:58;;;;;;;53.23;33.87;;;;;;;;;;4362120;32;319607;-83
2022/12/28 12:07:00;;;;;;;69.63;42.37;;;;;;;;;;4360973;32;319272;-84
2022/12/28 12:09:42;;;;;;;55.73;36.43;;;;;;;;;;4362274;32;319457;-83
2022/12/28 12:12:34;;;;;;;54.67;35.83;;;;;;;;;;4360098;32;329867;-83
2022/12/28 12:15:09;;;;;;;65.13;39.13;;;;;;;;;;4370709;32;356469;-84
2022/12/28 12:17:41;;;;;;;64.03;39.93;;;;;;;;;;4358664;32;419494;-83
2022/12/28 12:20:18;;;;;;;58.37;34.93;;;;;;;;;;4371793;32;319302;-84
2022/12/28 12:22:50;;;;;;;47.97;31.80;;;;;;;;;;4358311;32;419600;-83
2022/12/28 12:25:24;;;;;;;44.43;31.40;;;;;;;;;;4361654;32;319319;-83
2022/12/28 12:27:55;;;;;;;58.10;39.17;;;;;;;;;;4372375;32;319706;-83
2022/12/28 12:30:23;;;;;;;52.10;35.93;;;;;;;;;;4362750;32;319401;-84
2022/12/28 12:32:53;;;;;;;56.97;33.33;;;;;;;;;;4371962;32;318555;-82
2022/12/28 12:35:23;;;;;;;39.50;26.50;;;;;;;;;;4360954;32;319124;-83
2022/12/28 12:37:55;;;;;;;74.83;40.10;;;;;;;;;;4372087;32;318699;-82
2022/12/28 12:40:46;;;;;;;64.83;37.67;;;;;;;;;;4361790;32;318525;-83
2022/12/28 12:43:41;;;;;;;44.40;25.07;;;;;;;;;;4361805;32;319276;-83
2022/12/28 12:46:46;;;;;;;31.83;22.17;;;;;;;;;;4375323;32;318622;-84
2022/12/28 12:49:33;;;;;;;89.63;38.60;;;;;;;;;;4364973;32;418771;-82
2022/12/28 12:52:07;;;;;;;39.83;22.30;;;;;;;;;;4375098;32;319322;-83
2022/12/28 12:54:49;;;;;;;63.63;28.47;;;;;;;;;;4360932;32;419312;-82
2022/12/28 12:57:22;;;;;;;38.90;21.30;;;;;;;;;;4364811;32;318665;-82
2022/12/28 13:00:03;;;;;;;33.50;21.13;;;;;;;;;;4373527;32;319218;-82
2022/12/28 13:03:04;;;;;;;37.60;22.80;;;;;;;;;;4363535;32;319316;-82
2022/12/28 13:05:31;;;;;;;21.43;15.93;;;;;;;;;;4362385;32;319632;-82
2022/12/28 13:08:00;;;;;;;62.97;27.93;;;;;;;;;;4373713;32;319252;-82
2022/12/28 13:10:31;;;;;;;39.57;23.97;;;;;;;;;;4363647;32;319313;-83
2022/12/28 13:13:02;;;;;;;36.53;22.53;;;;;;;;;;4373625;32;359386;-83
2022/12/28 13:15:29;;;;;;;31.47;20.40;;;;;;;;;;4364617;32;319399;-83
2022/12/28 13:18:00;;;;;;;27.03;16.57;;;;;;;;;;4372954;32;318744;-82
2022/12/28 13:20:27;;;;;;;38.87;20.30;;;;;;;;;;4363313;32;319817;-82
2022/12/28 13:22:55;;;;;;;25.40;18.07;;;;;;;;;;4373123;32;319617;-82
2022/12/28 13:25:29;;;;;;;51.37;24.73;;;;;;;;;;4365272;32;319518;-82
2022/12/28 13:27:57;;;;;;;42.77;20.73;;;;;;;;;;4374686;32;319459;-81
2022/12/28 13:30:26;;;;;;;33.60;18.53;;;;;;;;;;4365493;32;318787;-85
2022/12/28 13:32:55;;;;;;;25.47;16.70;;;;;;;;;;4374788;32;318521;-82
2022/12/28 13:35:24;;;;;;;48.17;19.63;;;;;;;;;;4364559;32;319084;-83
2022/12/28 13:38:02;;;;;;;35.87;18.93;;;;;;;;;;4374246;32;318750;-83
2022/12/28 13:40:30;;;;;;;31.67;20.00;;;;;;;;;;4364230;32;331789;-82
2022/12/28 13:43:17;;;;;;;29.17;14.07;;;;;;;;;;4372287;32;345398;-81
2022/12/28 13:45:46;;;;;;;25.33;14.33;;;;;;;;;;4362745;32;418369;-80
2022/12/28 13:48:13;;;;;;;34.37;16.87;;;;;;;;;;4362977;32;319744;-82
2022/12/28 13:50:42;;;;;;;36.27;17.73;;;;;;;;;;4372703;32;319403;-81
2022/12/28 13:53:16;;;;;;;19.67;13.17;;;;;;;;;;4361540;32;325399;-81
2022/12/28 13:55:45;;;;;;;24.37;13.73;;;;;;;;;;4373148;32;318467;-82
2022/12/28 13:58:16;;;;;;;23.10;14.13;;;;;;;;;;4362828;32;319716;-81
2022/12/28 14:00:46;;;;;;;25.13;14.93;;;;;;;;;;4372867;32;319256;-81
2022/12/28 14:03:15;;;;;;;25.93;14.70;;;;;;;;;;4363106;32;319652;-82
2022/12/28 14:05:43;;;;;;;33.03;15.90;;;;;;;;;;4373973;32;318498;-82
2022/12/28 14:08:12;;;;;;;1621.77;658.67;;;;;;;;;;4363702;32;318583;-81
2022/12/28 14:10:39;;;;;;;1999.90;924.07;;;;;;;;;;4373384;32;321683;-84
2022/12/28 14:13:07;;;;;;;264.30;126.17;;;;;;;;;;4373255;32;322400;-83
2022/12/28 14:15:35;;;;;;;283.57;179.80;;;;;;;;;;4359466;32;420200;-83
2022/12/28 14:18:06;;;;;;;90.17;53.03;;;;;;;;;;4371807;32;321665;-81
2022/12/28 14:20:45;;;;;;;63.57;29.57;;;;;;;;;;4363736;32;319338;-83
2022/12/28 14:23:22;;;;;;;37.73;22.97;;;;;;;;;;4362360;32;318563;-82
2022/12/28 14:25:50;;;;;;;42.83;22.03;;;;;;;;;;4372233;32;319569;-83
2022/12/28 14:28:22;;;;;;;50.10;26.60;;;;;;;;;;4362484;32;319261;-83
2022/12/28 14:30:52;;;;;;;49.13;24.40;;;;;;;;;;4372889;32;318421;-82
2022/12/28 14:33:22;;;;;;;49.83;26.13;;;;;;;;;;4362186;32;318513;-84
2022/12/28 14:35:52;;;;;;;50.27;28.40;;;;;;;;;;4371926;32;318615;-84
2022/12/28 14:38:20;;;;;;;77.37;36.97;;;;;;;;;;4362188;32;318551;-84
2022/12/28 14:40:53;;;;;;;82.30;36.73;;;;;;;;;;4372145;32;319371;-84
2022/12/28 14:43:24;;;;;;;74.80;35.63;;;;;;;;;;4362988;32;318793;-82